createdAt,value
2018-01-05T00:01:54.163Z,10.70
2018-01-05T00:04:28.252Z,10.70
2018-01-05T00:07:03.789Z,10.60
2018-01-05T00:09:38.409Z,10.50
2018-01-05T00:12:13.636Z,10.50
2018-01-05T00:14:47.488Z,10.50
2018-01-05T00:17:21.492Z,10.50
2018-01-05T00:19:56.779Z,10.40
2018-01-05T00:22:31.044Z,10.30
2018-01-05T00:25:04.894Z,10.30
2018-01-05T00:27:39.642Z,10.30
2018-01-05T00:30:14.690Z,10.30
2018-01-05T00:32:48.851Z,10.30
2018-01-05T00:35:23.640Z,10.30
2018-01-05T00:37:57.582Z,10.30
2018-01-05T00:40:32.410Z,10.30
2018-01-05T00:43:07.320Z,10.30
2018-01-05T00:45:41.753Z,10.20
2018-01-05T00:48:15.948Z,10.20
2018-01-05T00:50:50.802Z,10.30
2018-01-05T00:53:25.117Z,10.20
2018-01-05T00:56:00.413Z,10.30
2018-01-05T00:58:34.811Z,10.30
2018-01-05T01:01:08.641Z,10.20
2018-01-05T01:03:43.232Z,10.20
2018-01-05T01:06:17.204Z,10.20
2018-01-05T01:08:51.854Z,10.30
2018-01-05T01:11:25.657Z,10.30
2018-01-05T01:14:00.361Z,10.40
2018-01-05T01:16:34.278Z,10.30
2018-01-05T01:19:08.985Z,10.20
2018-01-05T01:21:43.007Z,10.20
2018-01-05T01:24:17.726Z,10.40
2018-01-05T01:26:51.931Z,10.30
2018-01-05T01:29:25.908Z,10.60
2018-01-05T01:32:00.632Z,10.40
2018-01-05T01:34:34.784Z,10.40
2018-01-05T01:37:09.471Z,10.50
2018-01-05T01:39:44.443Z,10.40
2018-01-05T01:42:18.426Z,10.50
2018-01-05T01:44:53.162Z,10.30
2018-01-05T01:47:27.451Z,10.70
2018-01-05T01:50:02.129Z,10.50
2018-01-05T01:52:36.292Z,10.30
2018-01-05T01:55:10.400Z,10.40
2018-01-05T01:57:44.312Z,10.30
2018-01-05T02:00:18.446Z,10.30
2018-01-05T02:02:53.788Z,10.20
2018-01-05T02:05:29.385Z,10.20
2018-01-05T02:08:03.889Z,10.20
2018-01-05T02:10:37.727Z,10.50
2018-01-05T02:13:11.600Z,10.30
2018-01-05T02:15:45.343Z,10.70
2018-01-05T02:18:20.021Z,10.50
2018-01-05T02:20:53.979Z,10.70
2018-01-05T02:23:28.611Z,10.20
2018-01-05T02:26:02.724Z,10.20
2018-01-05T02:28:36.586Z,10.30
2018-01-05T02:31:11.309Z,10.60
2018-01-05T02:33:45.228Z,10.60
2018-01-05T02:36:19.761Z,10.70
2018-01-05T02:38:53.660Z,10.70
2018-01-05T02:41:28.994Z,10.50
2018-01-05T02:44:03.668Z,10.60
2018-01-05T02:46:37.695Z,10.50
2018-01-05T02:49:13.144Z,10.50
2018-01-05T02:51:47.993Z,10.50
2018-01-05T02:54:22.015Z,10.50
2018-01-05T02:56:55.768Z,10.70
2018-01-05T02:59:29.499Z,10.70
2018-01-05T03:02:04.126Z,10.70
2018-01-05T03:04:37.970Z,10.70
2018-01-05T03:07:12.385Z,10.80
2018-01-05T03:09:47.139Z,10.70
2018-01-05T03:12:21.331Z,10.70
2018-01-05T03:14:55.790Z,10.30
2018-01-05T03:17:30.654Z,10.50
2018-01-05T03:20:04.824Z,10.50
2018-01-05T03:22:39.557Z,10.50
2018-01-05T03:25:15.001Z,10.00
2018-01-05T03:27:49.037Z,10.00
2018-01-05T03:30:23.287Z,10.20
2018-01-05T03:32:57.247Z,10.00
2018-01-05T03:35:31.168Z,9.90
2018-01-05T03:38:05.683Z,10.10
2018-01-05T03:40:39.623Z,10.10
2018-01-05T03:43:14.235Z,10.00
2018-01-05T03:45:49.169Z,10.00
2018-01-05T03:48:24.110Z,10.10
2018-01-05T03:50:58.666Z,10.00
2018-01-05T03:53:32.565Z,10.00
2018-01-05T03:56:06.234Z,10.30
2018-01-05T03:58:40.065Z,10.10
2018-01-05T04:01:14.541Z,10.20
2018-01-05T04:03:48.513Z,10.20
2018-01-05T04:06:22.337Z,10.20
2018-01-05T04:08:56.225Z,10.20
2018-01-05T04:11:30.611Z,10.20
2018-01-05T04:14:04.475Z,10.40
2018-01-05T04:16:39.000Z,10.30
2018-01-05T04:19:13.086Z,10.20
2018-01-05T04:21:46.943Z,10.20
2018-01-05T04:24:20.767Z,10.20
2018-01-05T04:26:56.163Z,10.30
2018-01-05T04:29:30.247Z,10.30
2018-01-05T04:32:05.467Z,10.30
2018-01-05T04:34:40.041Z,10.30
2018-01-05T04:37:14.749Z,10.30
2018-01-05T04:39:49.350Z,10.30
2018-01-05T04:42:23.171Z,10.30
2018-01-05T04:44:57.666Z,10.20
2018-01-05T04:47:33.163Z,10.20
2018-01-05T04:50:07.191Z,10.20
2018-01-05T04:52:42.517Z,10.20
2018-01-05T04:55:17.266Z,10.20
2018-01-05T04:57:51.979Z,10.20
2018-01-05T05:00:26.815Z,10.10
2018-01-05T05:03:00.937Z,10.10
2018-01-05T05:05:35.540Z,10.10
2018-01-05T05:08:09.460Z,10.10
2018-01-05T05:10:43.792Z,10.20
2018-01-05T05:13:17.529Z,10.20
2018-01-05T05:15:51.640Z,10.20
2018-01-05T05:18:26.181Z,10.20
2018-01-05T05:21:00.702Z,10.20
2018-01-05T05:23:35.654Z,10.30
2018-01-05T05:26:09.844Z,10.20
2018-01-05T05:28:43.734Z,10.20
2018-01-05T05:31:18.244Z,10.30
2018-01-05T05:33:53.011Z,10.40
2018-01-05T05:36:27.871Z,10.40
2018-01-05T05:39:02.730Z,10.30
2018-01-05T05:41:36.630Z,10.30
2018-01-05T05:44:11.106Z,10.20
2018-01-05T05:46:45.194Z,10.20
2018-01-05T05:49:19.836Z,10.30
2018-01-05T05:51:53.803Z,10.30
2018-01-05T05:54:27.632Z,10.30
2018-01-05T05:57:01.417Z,10.40
2018-01-05T05:59:36.081Z,10.40
2018-01-05T06:02:10.059Z,10.40
2018-01-05T06:04:44.605Z,10.40
2018-01-05T06:07:18.604Z,10.40
2018-01-05T06:09:53.343Z,10.50
2018-01-05T06:12:27.574Z,10.50
2018-01-05T06:15:01.641Z,10.40
2018-01-05T06:17:36.763Z,10.40
2018-01-05T06:20:10.741Z,10.40
2018-01-05T06:22:44.734Z,10.50
2018-01-05T06:25:19.345Z,10.50
2018-01-05T06:27:54.247Z,10.50
2018-01-05T06:30:28.384Z,10.50
2018-01-05T06:33:02.352Z,10.60
2018-01-05T06:35:36.284Z,10.60
2018-01-05T06:38:11.703Z,10.60
2018-01-05T06:40:45.744Z,10.60
2018-01-05T06:43:19.616Z,10.60
2018-01-05T06:45:53.421Z,10.70
2018-01-05T06:48:27.474Z,10.80
2018-01-05T06:51:01.914Z,10.70
2018-01-05T06:53:36.049Z,10.70
2018-01-05T06:56:09.758Z,10.70
2018-01-05T06:58:43.893Z,10.70
2018-01-05T07:01:18.466Z,10.70
2018-01-05T07:03:53.730Z,10.70
2018-01-05T07:06:27.643Z,10.70
2018-01-05T07:09:02.560Z,10.70
2018-01-05T07:11:36.390Z,10.80
2018-01-05T07:14:10.425Z,10.80
2018-01-05T07:16:44.205Z,10.80
2018-01-05T07:19:17.970Z,10.80
2018-01-05T07:21:51.757Z,10.80
2018-01-05T07:24:25.516Z,10.80
2018-01-05T07:27:00.134Z,10.80
2018-01-05T07:29:34.418Z,10.80
2018-01-05T07:32:08.192Z,10.80
2018-01-05T07:34:41.944Z,10.80
2018-01-05T07:37:15.673Z,10.80
2018-01-05T07:39:50.396Z,10.80
2018-01-05T07:42:24.264Z,10.80
2018-01-05T07:44:58.266Z,10.80
2018-01-05T07:47:32.438Z,10.80
2018-01-05T07:50:06.303Z,10.80
2018-01-05T07:52:39.924Z,10.80
2018-01-05T07:55:13.848Z,10.80
2018-01-05T07:57:48.641Z,10.80
2018-01-05T08:00:22.773Z,10.80
2018-01-05T08:02:57.371Z,10.80
2018-01-05T08:05:31.555Z,10.80
2018-01-05T08:08:06.208Z,10.80
2018-01-05T08:10:40.609Z,10.80
2018-01-05T08:13:15.374Z,10.80
2018-01-05T08:15:49.234Z,10.80
2018-01-05T08:18:23.134Z,10.80
2018-01-05T08:20:57.840Z,10.80
2018-01-05T08:23:31.777Z,10.80
2018-01-05T08:26:05.735Z,10.80
2018-01-05T08:28:40.045Z,10.80
2018-01-05T08:31:13.796Z,10.80
2018-01-05T08:33:48.467Z,10.90
2018-01-05T08:36:23.319Z,10.90
2018-01-05T08:38:58.104Z,10.90
2018-01-05T08:41:32.473Z,10.90
2018-01-05T08:44:06.470Z,11.00
2018-01-05T08:46:41.096Z,11.00
2018-01-05T08:49:16.117Z,11.10
2018-01-05T08:51:50.189Z,11.00
2018-01-05T08:54:24.126Z,11.20
2018-01-05T08:56:59.106Z,11.20
2018-01-05T08:59:33.294Z,11.20
2018-01-05T09:02:08.344Z,11.20
2018-01-05T09:04:42.217Z,11.20
2018-01-05T09:07:16.298Z,11.20
2018-01-05T09:09:49.930Z,11.20
2018-01-05T09:12:23.782Z,11.20
2018-01-05T09:14:58.481Z,11.20
2018-01-05T09:17:32.538Z,11.20
2018-01-05T09:20:06.285Z,11.20
2018-01-05T09:22:40.119Z,11.20
2018-01-05T09:25:13.801Z,11.20
2018-01-05T09:27:47.674Z,11.20
2018-01-05T09:30:22.296Z,11.40
2018-01-05T09:32:57.172Z,11.30
2018-01-05T09:35:31.977Z,11.40
2018-01-05T09:38:06.881Z,11.30
2018-01-05T09:40:40.983Z,11.30
2018-01-05T09:43:15.722Z,11.40
2018-01-05T09:45:50.447Z,11.40
2018-01-05T09:48:25.471Z,11.50
2018-01-05T09:50:59.492Z,11.50
2018-01-05T09:53:34.324Z,11.60
2018-01-05T09:56:08.283Z,11.60
2018-01-05T09:58:42.206Z,11.70
2018-01-05T10:01:15.994Z,11.70
2018-01-05T10:03:49.763Z,11.80
2018-01-05T10:06:23.651Z,11.90
2018-01-05T10:08:57.887Z,12.00
2018-01-05T10:11:33.420Z,12.10
2018-01-05T10:14:08.594Z,12.00
2018-01-05T10:16:42.716Z,12.00
2018-01-05T10:19:16.630Z,12.00
2018-01-05T10:21:50.579Z,12.10
2018-01-05T10:24:24.549Z,12.10
2018-01-05T10:26:58.646Z,12.20
2018-01-05T10:29:32.388Z,12.20
2018-01-05T10:32:06.284Z,12.20
2018-01-05T10:34:40.150Z,12.30
2018-01-05T10:37:13.931Z,12.30
2018-01-05T10:39:47.887Z,12.30
2018-01-05T10:42:22.499Z,12.40
2018-01-05T10:44:56.616Z,12.40
2018-01-05T10:47:30.415Z,12.40
2018-01-05T10:50:05.049Z,12.40
2018-01-05T10:52:40.139Z,12.40
2018-01-05T10:55:14.327Z,12.40
2018-01-05T10:57:48.372Z,12.40
2018-01-05T11:00:23.088Z,12.40
2018-01-05T11:02:57.557Z,12.50
2018-01-05T11:05:31.517Z,12.40
2018-01-05T11:08:05.887Z,12.40
2018-01-05T11:10:40.237Z,12.40
2018-01-05T11:13:15.006Z,12.40
2018-01-05T11:15:49.871Z,12.50
2018-01-05T11:18:24.408Z,12.40
2018-01-05T11:20:58.410Z,12.40
2018-01-05T11:23:32.162Z,12.40
2018-01-05T11:26:05.960Z,12.50
2018-01-05T11:28:39.898Z,12.50
2018-01-05T11:31:13.790Z,12.50
2018-01-05T11:33:47.988Z,12.40
2018-01-05T11:36:21.884Z,12.50
2018-01-05T11:38:55.662Z,12.50
2018-01-05T11:41:29.581Z,12.50
2018-01-05T11:44:04.635Z,12.50
2018-01-05T11:46:43.151Z,12.50
2018-01-05T11:49:18.945Z,12.50
2018-01-05T11:51:53.455Z,12.50
2018-01-05T11:54:28.715Z,12.40
2018-01-05T11:57:03.651Z,12.50
2018-01-05T11:59:37.584Z,12.40
2018-01-05T12:02:12.187Z,12.40
2018-01-05T12:04:47.867Z,12.30
2018-01-05T12:07:23.215Z,12.40
2018-01-05T12:09:57.202Z,12.40
2018-01-05T12:12:32.889Z,12.30
2018-01-05T12:15:07.128Z,12.40
2018-01-05T12:17:42.487Z,12.20
2018-01-05T12:20:17.793Z,12.40
2018-01-05T12:22:51.866Z,12.40
2018-01-05T12:25:26.920Z,12.40
2018-01-05T12:28:01.472Z,12.50
2018-01-05T12:30:35.974Z,12.40
2018-01-05T12:33:10.543Z,12.40
2018-01-05T12:35:45.118Z,12.30
2018-01-05T12:38:19.922Z,12.30
2018-01-05T12:40:54.679Z,12.20
2018-01-05T12:43:29.388Z,12.20
2018-01-05T12:46:04.256Z,12.10
2018-01-05T12:48:38.411Z,12.10
2018-01-05T12:51:12.518Z,12.10
2018-01-05T12:53:46.719Z,12.10
2018-01-05T12:56:20.390Z,12.00
2018-01-05T12:58:54.495Z,12.00
2018-01-05T13:01:28.924Z,12.00
2018-01-05T13:04:03.354Z,12.00
2018-01-05T13:06:38.111Z,12.00
2018-01-05T13:09:11.936Z,12.00
2018-01-05T13:11:45.801Z,12.00
2018-01-05T13:14:20.581Z,12.30
2018-01-05T13:16:54.541Z,12.20
2018-01-05T13:19:29.318Z,12.10
2018-01-05T13:22:04.494Z,11.90
2018-01-05T13:24:38.772Z,11.90
2018-01-05T13:27:13.413Z,11.90
2018-01-05T13:29:47.480Z,11.90
2018-01-05T13:32:22.185Z,11.90
2018-01-05T13:34:56.349Z,11.90
2018-01-05T13:37:30.213Z,11.90
2018-01-05T13:40:05.032Z,12.10
2018-01-05T13:42:39.143Z,12.00
2018-01-05T13:45:13.302Z,12.40
2018-01-05T13:47:47.946Z,12.40
2018-01-05T13:50:22.702Z,12.30
2018-01-05T13:52:56.829Z,12.30
2018-01-05T13:55:31.488Z,12.30
2018-01-05T13:58:06.144Z,11.90
2018-01-05T14:00:40.993Z,12.20
2018-01-05T14:03:15.114Z,12.10
2018-01-05T14:05:49.060Z,12.30
2018-01-05T14:08:23.624Z,11.70
2018-01-05T14:10:58.486Z,11.90
2018-01-05T14:13:33.584Z,12.20
2018-01-05T14:16:08.540Z,12.10
2018-01-05T14:18:42.591Z,12.10
2018-01-05T14:21:17.394Z,11.90
2018-01-05T14:23:51.397Z,11.90
2018-01-05T14:26:26.109Z,11.90
2018-01-05T14:28:59.935Z,11.90
2018-01-05T14:31:34.712Z,12.00
2018-01-05T14:34:09.945Z,11.70
2018-01-05T14:36:44.630Z,11.70
2018-01-05T14:39:18.768Z,11.70
2018-01-05T14:41:52.673Z,11.80
2018-01-05T14:44:27.432Z,11.50
2018-01-05T14:47:01.587Z,11.60
2018-01-05T14:49:35.568Z,12.00
2018-01-05T14:52:09.612Z,11.90
2018-01-05T14:54:43.573Z,11.80
2018-01-05T14:57:17.555Z,11.70
2018-01-05T14:59:51.479Z,11.70
2018-01-05T15:02:26.291Z,11.70
2018-01-05T15:05:00.842Z,11.90
2018-01-05T15:07:34.835Z,11.90
2018-01-05T15:10:09.594Z,12.10
2018-01-05T15:12:43.760Z,12.10
2018-01-05T15:15:17.732Z,11.90
2018-01-05T15:17:51.871Z,11.70
2018-01-05T15:20:27.285Z,11.50
2018-01-05T15:23:02.230Z,11.40
2018-01-05T15:25:36.896Z,11.50
2018-01-05T15:28:11.799Z,11.80
2018-01-05T15:30:45.920Z,11.80
2018-01-05T15:33:19.680Z,12.10
2018-01-05T15:35:53.863Z,12.10
2018-01-05T15:38:27.656Z,12.10
2018-01-05T15:41:02.110Z,11.40
2018-01-05T15:43:36.208Z,11.40
2018-01-05T15:46:11.562Z,11.40
2018-01-05T15:48:45.806Z,11.40
2018-01-05T15:51:20.706Z,11.60
2018-01-05T15:53:54.869Z,11.60
2018-01-05T15:56:28.906Z,11.50
2018-01-05T15:59:03.694Z,11.60
2018-01-05T16:01:37.518Z,11.50
2018-01-05T16:04:12.211Z,11.50
2018-01-05T16:06:46.290Z,11.50
2018-01-05T16:09:20.247Z,11.50
2018-01-05T16:11:54.051Z,11.40
2018-01-05T16:14:28.423Z,11.20
2018-01-05T16:17:03.661Z,11.20
2018-01-05T16:19:38.419Z,11.30
2018-01-05T16:22:12.546Z,11.20
2018-01-05T16:24:46.813Z,11.30
2018-01-05T16:27:22.277Z,11.40
2018-01-05T16:29:56.264Z,11.40
2018-01-05T16:32:30.009Z,11.40
2018-01-05T16:35:05.155Z,11.50
2018-01-05T16:37:39.227Z,11.50
2018-01-05T16:40:13.645Z,11.50
2018-01-05T16:42:48.396Z,11.50
2018-01-05T16:45:22.505Z,11.50
2018-01-05T16:47:56.379Z,11.60
2018-01-05T16:50:30.695Z,11.50
2018-01-05T16:53:05.596Z,11.40
2018-01-05T16:55:40.593Z,11.50
2018-01-05T16:58:15.728Z,11.60
2018-01-05T17:00:50.271Z,11.60
2018-01-05T17:03:24.926Z,11.70
2018-01-05T17:06:00.323Z,11.30
2018-01-05T17:08:34.716Z,11.30
2018-01-05T17:11:09.258Z,11.60
2018-01-05T17:13:42.999Z,11.60
2018-01-05T17:16:17.617Z,11.80
2018-01-05T17:18:52.372Z,11.80
2018-01-05T17:21:26.455Z,11.80
2018-01-05T17:24:00.259Z,12.00
2018-01-05T17:26:34.776Z,11.50
2018-01-05T17:29:08.724Z,11.50
2018-01-05T17:31:42.517Z,11.40
2018-01-05T17:34:18.071Z,11.30
2018-01-05T17:36:52.048Z,11.30
2018-01-05T17:39:25.879Z,11.10
2018-01-05T17:41:59.888Z,11.10
2018-01-05T17:44:33.728Z,11.00
2018-01-05T17:47:07.868Z,11.00
2018-01-05T17:49:42.372Z,11.10
2018-01-05T17:52:16.560Z,11.10
2018-01-05T17:54:51.407Z,11.00
2018-01-05T17:57:26.971Z,11.10
2018-01-05T18:00:01.815Z,11.10
2018-01-05T18:02:36.073Z,11.10
2018-01-05T18:05:09.911Z,11.10
2018-01-05T18:07:44.001Z,11.10
2018-01-05T18:10:19.375Z,11.10
2018-01-05T18:12:53.394Z,11.10
2018-01-05T18:15:27.193Z,11.10
2018-01-05T18:18:01.004Z,11.10
2018-01-05T18:20:34.740Z,11.20
2018-01-05T18:23:09.498Z,11.10
2018-01-05T18:25:44.233Z,11.00
2018-01-05T18:28:18.428Z,11.00
2018-01-05T18:30:52.964Z,11.00
2018-01-05T18:33:28.155Z,11.00
2018-01-05T18:36:02.448Z,11.00
2018-01-05T18:38:36.973Z,11.00
2018-01-05T18:41:10.984Z,11.00
2018-01-05T18:43:45.397Z,11.20
2018-01-05T18:46:19.251Z,11.00
2018-01-05T18:48:54.230Z,11.10
2018-01-05T18:51:29.440Z,11.00
2018-01-05T18:54:03.773Z,11.00
2018-01-05T18:56:37.597Z,11.10
2018-01-05T18:59:11.505Z,11.10
2018-01-05T19:01:46.847Z,11.30
2018-01-05T19:04:21.102Z,11.20
2018-01-05T19:06:55.078Z,11.00
2018-01-05T19:09:28.922Z,11.10
2018-01-05T19:12:02.847Z,11.30
2018-01-05T19:14:37.000Z,11.20
2018-01-05T19:17:10.953Z,11.00
2018-01-05T19:19:44.744Z,11.00
2018-01-05T19:22:18.501Z,11.30
2018-01-05T19:24:52.445Z,11.30
2018-01-05T19:27:26.300Z,11.30
2018-01-05T19:30:00.980Z,11.10
2018-01-05T19:32:34.993Z,11.10
2018-01-05T19:35:09.352Z,11.00
2018-01-05T19:37:44.025Z,11.00
2018-01-05T19:40:17.933Z,11.00
2018-01-05T19:42:52.768Z,10.90
2018-01-05T19:45:26.634Z,10.90
2018-01-05T19:48:01.157Z,10.80
2018-01-05T19:50:35.280Z,10.90
2018-01-05T19:53:09.884Z,10.70
2018-01-05T19:55:44.080Z,10.70
2018-01-05T19:58:18.625Z,10.70
2018-01-05T20:00:52.658Z,10.60
2018-01-05T20:03:27.274Z,10.50
2018-01-05T20:06:02.736Z,10.50
2018-01-05T20:08:36.747Z,10.50
2018-01-05T20:11:11.362Z,10.50
2018-01-05T20:13:45.393Z,10.50
2018-01-05T20:16:20.738Z,10.70
2018-01-05T20:18:54.846Z,10.70
2018-01-05T20:21:29.213Z,10.60
2018-01-05T20:24:03.854Z,11.10
2018-01-05T20:26:38.156Z,11.10
2018-01-05T20:29:12.072Z,11.10
2018-01-05T20:31:47.618Z,11.00
2018-01-05T20:34:21.984Z,11.00
2018-01-05T20:36:55.687Z,10.70
2018-01-05T20:39:29.519Z,10.70
2018-01-05T20:42:03.641Z,10.70
2018-01-05T20:44:38.223Z,10.40
2018-01-05T20:47:12.236Z,10.30
2018-01-05T20:49:46.286Z,10.30
2018-01-05T20:52:20.078Z,10.40
2018-01-05T20:54:54.881Z,10.40
2018-01-05T20:57:28.842Z,10.40
2018-01-05T21:00:03.305Z,10.50
2018-01-05T21:02:37.293Z,10.40
2018-01-05T21:05:12.735Z,10.40
2018-01-05T21:07:47.489Z,10.30
2018-01-05T21:10:21.587Z,10.30
2018-01-05T21:12:56.225Z,10.30
2018-01-05T21:15:29.999Z,10.50
2018-01-05T21:18:04.637Z,10.40
2018-01-05T21:20:38.554Z,10.50
2018-01-05T21:23:13.415Z,10.40
2018-01-05T21:25:49.120Z,10.50
2018-01-05T21:28:25.173Z,10.60
2018-01-05T21:31:00.211Z,10.50
2018-01-05T21:33:36.039Z,10.50
2018-01-05T21:36:12.707Z,10.40
2018-01-05T21:38:48.516Z,10.40
2018-01-05T21:41:23.778Z,10.50
2018-01-05T21:43:58.919Z,10.50
2018-01-05T21:46:33.155Z,10.50
2018-01-05T21:49:09.389Z,10.40
2018-01-05T21:51:45.238Z,10.60
2018-01-05T21:54:20.916Z,10.40
2018-01-05T21:56:55.659Z,10.30
2018-01-05T21:59:31.186Z,10.30
2018-01-05T22:02:07.518Z,10.30
2018-01-05T22:04:42.872Z,10.30
2018-01-05T22:07:18.677Z,10.50
2018-01-05T22:09:54.030Z,10.40
2018-01-05T22:12:29.524Z,10.50
2018-01-05T22:15:05.989Z,10.90
2018-01-05T22:17:41.909Z,10.90
2018-01-05T22:20:16.251Z,10.70
2018-01-05T22:22:52.527Z,10.50
2018-01-05T22:25:27.943Z,10.50
2018-01-05T22:28:04.338Z,10.70
2018-01-05T22:30:40.300Z,10.80
2018-01-05T22:33:17.751Z,10.80
2018-01-05T22:35:52.984Z,10.70
2018-01-05T22:38:30.007Z,10.60
2018-01-05T22:41:06.420Z,10.60
2018-01-05T22:43:43.368Z,10.70
2018-01-05T22:46:19.335Z,10.60
2018-01-05T22:48:56.600Z,10.30
2018-01-05T22:51:32.844Z,10.50
2018-01-05T22:54:11.362Z,10.70
2018-01-05T22:56:47.344Z,10.60
2018-01-05T22:59:23.254Z,11.00
2018-01-05T23:01:58.928Z,10.70
2018-01-05T23:04:36.031Z,10.50
2018-01-05T23:07:12.277Z,10.50
2018-01-05T23:09:48.266Z,10.50
2018-01-05T23:12:23.819Z,10.40
2018-01-05T23:14:59.396Z,10.40
2018-01-05T23:17:34.712Z,10.40
2018-01-05T23:20:09.696Z,10.30
2018-01-05T23:22:47.696Z,10.30
2018-01-05T23:25:22.208Z,10.40
2018-01-05T23:27:56.878Z,10.20
2018-01-05T23:30:32.350Z,10.20
2018-01-05T23:33:07.952Z,10.30
2018-01-05T23:35:43.881Z,10.30
2018-01-05T23:38:19.761Z,10.30
2018-01-05T23:40:55.571Z,10.40
2018-01-05T23:43:31.829Z,10.40
2018-01-05T23:46:07.627Z,10.20
2018-01-05T23:48:43.985Z,10.30
2018-01-05T23:51:18.665Z,10.50
2018-01-05T23:53:54.126Z,10.50
2018-01-05T23:56:30.503Z,10.60
2018-01-05T23:59:06.866Z,10.40
